createdAt,value
2018-09-05T00:02:11.546Z,99.90
2018-09-05T00:04:41.357Z,99.90
2018-09-05T00:07:10.794Z,99.90
2018-09-05T00:09:39.767Z,99.90
2018-09-05T00:12:08.677Z,99.90
2018-09-05T00:14:37.646Z,99.90
2018-09-05T00:17:06.716Z,99.90
2018-09-05T00:19:35.250Z,99.90
2018-09-05T00:22:03.583Z,99.90
2018-09-05T00:24:31.658Z,99.90
2018-09-05T00:27:00.594Z,99.90
2018-09-05T00:29:28.727Z,99.90
2018-09-05T00:31:57.797Z,99.90
2018-09-05T00:34:25.997Z,99.90
2018-09-05T00:36:54.783Z,99.90
2018-09-05T00:39:23.009Z,99.90
2018-09-05T00:41:51.422Z,99.90
2018-09-05T00:44:20.359Z,99.90
2018-09-05T00:46:49.351Z,99.90
2018-09-05T00:49:18.427Z,99.90
2018-09-05T00:51:47.915Z,99.90
2018-09-05T00:54:16.113Z,99.90
2018-09-05T00:56:44.305Z,99.90
2018-09-05T00:59:13.321Z,99.90
2018-09-05T01:01:42.062Z,99.90
2018-09-05T01:04:11.210Z,99.90
2018-09-05T01:06:39.303Z,99.90
2018-09-05T01:09:09.056Z,99.90
2018-09-05T01:11:37.426Z,99.90
2018-09-05T01:14:07.542Z,99.90
2018-09-05T01:16:38.088Z,99.90
2018-09-05T01:19:06.170Z,99.90
2018-09-05T01:21:35.101Z,99.90
2018-09-05T01:24:03.413Z,99.90
2018-09-05T01:26:31.893Z,99.90
2018-09-05T01:29:01.022Z,99.90
2018-09-05T01:31:29.550Z,99.90
2018-09-05T01:33:59.210Z,99.90
2018-09-05T01:36:28.078Z,99.90
2018-09-05T01:38:57.190Z,99.90
2018-09-05T01:41:25.509Z,99.90
2018-09-05T01:43:53.641Z,99.90
2018-09-05T01:46:22.378Z,99.90
2018-09-05T01:48:50.475Z,99.90
2018-09-05T01:51:19.069Z,99.90
2018-09-05T01:53:47.701Z,99.90
2018-09-05T01:56:16.813Z,99.90
2018-09-05T01:58:46.405Z,99.90
2018-09-05T02:01:15.505Z,99.90
2018-09-05T02:03:44.141Z,99.90
2018-09-05T02:06:13.261Z,99.90
2018-09-05T02:08:41.393Z,99.90
2018-09-05T02:11:09.464Z,99.90
2018-09-05T02:13:38.202Z,99.90
2018-09-05T02:16:07.890Z,99.90
2018-09-05T02:18:36.051Z,99.90
2018-09-05T02:21:04.228Z,99.90
2018-09-05T02:23:32.997Z,99.90
2018-09-05T02:26:01.726Z,99.90
2018-09-05T02:28:30.638Z,99.90
2018-09-05T02:30:58.769Z,99.90
2018-09-05T02:33:29.228Z,99.90
2018-09-05T02:37:01.545Z,99.90
2018-09-05T02:39:30.631Z,99.90
2018-09-05T02:41:58.777Z,99.90
2018-09-05T02:44:27.549Z,99.90
2018-09-05T02:46:56.561Z,99.90
2018-09-05T02:49:26.909Z,99.90
2018-09-05T02:51:56.070Z,99.90
2018-09-05T02:54:24.538Z,99.90
2018-09-05T02:56:53.817Z,99.90
2018-09-05T02:59:22.293Z,99.90
2018-09-05T03:01:50.698Z,99.90
2018-09-05T03:04:18.877Z,99.90
2018-09-05T03:06:48.894Z,99.90
2018-09-05T03:09:18.205Z,99.90
2018-09-05T03:11:47.040Z,99.90
2018-09-05T03:14:15.329Z,99.90
2018-09-05T03:16:43.541Z,99.90
2018-09-05T03:19:13.354Z,99.90
2018-09-05T03:21:41.550Z,99.90
2018-09-05T03:24:10.017Z,99.90
2018-09-05T03:26:39.377Z,99.90
2018-09-05T03:29:08.833Z,99.90
2018-09-05T03:31:37.089Z,99.90
2018-09-05T03:34:07.744Z,99.90
2018-09-05T03:36:36.466Z,99.90
2018-09-05T03:39:07.954Z,99.90
2018-09-05T03:41:36.111Z,99.90
2018-09-05T03:44:04.993Z,99.90
2018-09-05T03:46:33.156Z,99.90
2018-09-05T03:49:01.273Z,99.90
2018-09-05T03:51:29.476Z,99.90
2018-09-05T03:53:57.577Z,99.90
2018-09-05T03:56:26.033Z,99.90
2018-09-05T03:58:54.118Z,99.90
2018-09-05T04:01:22.455Z,99.90
2018-09-05T04:03:52.778Z,99.90
2018-09-05T04:06:22.448Z,99.90
2018-09-05T04:08:52.857Z,99.90
2018-09-05T04:11:21.373Z,99.90
2018-09-05T04:13:50.013Z,99.90
2018-09-05T04:16:18.377Z,99.90
2018-09-05T04:18:46.495Z,99.90
2018-09-05T04:21:15.853Z,99.90
2018-09-05T04:23:46.981Z,99.90
2018-09-05T04:26:17.318Z,99.90
2018-09-05T04:28:45.521Z,99.90
2018-09-05T04:31:15.329Z,99.90
2018-09-05T04:33:44.611Z,99.90
2018-09-05T04:36:14.364Z,99.90
2018-09-05T04:38:44.021Z,99.90
2018-09-05T04:41:12.715Z,99.90
2018-09-05T04:43:41.829Z,99.90
2018-09-05T04:46:09.980Z,99.90
2018-09-05T04:48:38.473Z,99.90
2018-09-05T04:51:07.173Z,99.90
2018-09-05T04:53:36.295Z,99.90
2018-09-05T04:56:05.445Z,99.90
2018-09-05T04:58:34.514Z,99.90
2018-09-05T05:01:02.648Z,99.90
2018-09-05T05:03:30.725Z,99.90
2018-09-05T05:05:59.242Z,99.90
2018-09-05T05:08:28.758Z,99.90
2018-09-05T05:10:57.690Z,99.90
2018-09-05T05:13:25.898Z,99.90
2018-09-05T05:15:54.676Z,99.90
2018-09-05T05:18:22.886Z,99.90
2018-09-05T05:20:51.132Z,99.90
2018-09-05T05:23:19.442Z,99.90
2018-09-05T05:25:49.405Z,99.90
2018-09-05T05:28:18.001Z,99.90
2018-09-05T05:30:46.122Z,99.90
2018-09-05T05:33:15.027Z,99.90
2018-09-05T05:35:43.934Z,99.90
2018-09-05T05:38:13.214Z,99.90
2018-09-05T05:40:42.857Z,99.90
2018-09-05T05:43:10.982Z,99.90
2018-09-05T05:45:40.249Z,99.90
2018-09-05T05:48:08.399Z,99.90
2018-09-05T05:50:36.697Z,99.90
2018-09-05T05:53:05.287Z,99.90
2018-09-05T05:55:33.873Z,99.90
2018-09-05T05:58:02.450Z,99.90
2018-09-05T06:00:30.645Z,99.90
2018-09-05T06:02:59.862Z,99.90
2018-09-05T06:05:28.057Z,99.90
2018-09-05T06:07:56.285Z,99.90
2018-09-05T06:10:26.701Z,99.90
2018-09-05T06:12:56.654Z,99.90
2018-09-05T06:15:25.738Z,99.90
2018-09-05T06:17:54.520Z,99.90
2018-09-05T06:20:22.903Z,99.90
2018-09-05T06:22:51.366Z,99.90
2018-09-05T06:25:19.859Z,99.90
2018-09-05T06:27:48.916Z,99.90
2018-09-05T06:30:17.322Z,99.90
2018-09-05T06:32:47.194Z,99.90
2018-09-05T06:35:16.558Z,99.90
2018-09-05T06:37:45.282Z,99.90
2018-09-05T06:40:13.398Z,99.90
2018-09-05T06:42:42.453Z,99.90
2018-09-05T06:45:10.895Z,99.90
2018-09-05T06:47:38.962Z,99.90
2018-09-05T06:50:07.718Z,99.90
2018-09-05T06:52:35.913Z,99.90
2018-09-05T06:55:04.526Z,99.90
2018-09-05T06:57:32.734Z,99.90
2018-09-05T07:00:02.262Z,99.90
2018-09-05T07:02:30.566Z,99.90
2018-09-05T07:04:59.170Z,99.90
2018-09-05T07:07:27.926Z,99.90
2018-09-05T07:09:56.152Z,99.90
2018-09-05T07:12:24.245Z,99.90
2018-09-05T07:14:52.430Z,99.90
2018-09-05T07:17:21.117Z,99.90
2018-09-05T07:19:49.374Z,99.90
2018-09-05T07:22:19.387Z,99.90
2018-09-05T07:24:47.584Z,99.90
2018-09-05T07:27:17.094Z,99.90
2018-09-05T07:29:45.379Z,99.90
2018-09-05T07:32:14.437Z,99.90
2018-09-05T07:34:42.617Z,99.90
2018-09-05T07:37:11.753Z,99.90
2018-09-05T07:39:39.994Z,99.90
2018-09-05T07:42:10.062Z,99.90
2018-09-05T07:44:38.813Z,99.90
2018-09-05T07:47:07.948Z,99.90
2018-09-05T07:49:36.397Z,99.90
2018-09-05T07:52:05.660Z,99.90
2018-09-05T07:54:34.875Z,99.90
2018-09-05T07:57:03.540Z,99.90
2018-09-05T07:59:33.165Z,99.90
2018-09-05T08:02:01.336Z,99.90
2018-09-05T08:04:30.671Z,99.90
2018-09-05T08:06:59.037Z,99.90
2018-09-05T08:09:28.113Z,99.90
2018-09-05T08:11:56.330Z,99.90
2018-09-05T08:14:25.313Z,99.90
2018-09-05T08:16:54.405Z,99.90
2018-09-05T08:19:23.861Z,99.90
2018-09-05T08:21:54.479Z,99.90
2018-09-05T08:24:23.503Z,99.90
2018-09-05T08:26:51.552Z,99.90
2018-09-05T08:29:20.034Z,99.90
2018-09-05T08:31:50.429Z,99.90
2018-09-05T08:34:20.453Z,99.90
2018-09-05T08:36:50.385Z,99.90
2018-09-05T08:39:18.324Z,99.90
2018-09-05T08:41:46.522Z,99.90
2018-09-05T08:44:15.471Z,99.90
2018-09-05T08:46:43.484Z,99.90
2018-09-05T08:49:11.718Z,99.90
2018-09-05T08:51:40.297Z,99.90
2018-09-05T09:01:06.300Z,99.90
2018-09-05T09:03:34.827Z,99.90
2018-09-05T09:06:03.452Z,99.90
2018-09-05T09:08:32.494Z,99.90
2018-09-05T09:11:00.918Z,99.90
2018-09-05T09:13:29.145Z,99.90
2018-09-05T09:15:57.373Z,99.90
2018-09-05T09:18:25.793Z,99.90
2018-09-05T09:20:54.001Z,99.90
2018-09-05T09:23:22.210Z,99.90
2018-09-05T09:25:50.371Z,99.90
2018-09-05T09:28:19.314Z,99.90
2018-09-05T09:30:47.403Z,99.90
2018-09-05T09:33:17.054Z,99.90
2018-09-05T09:35:45.132Z,99.90
2018-09-05T09:38:13.293Z,99.90
2018-09-05T09:40:41.681Z,99.90
2018-09-05T09:43:09.795Z,99.90
2018-09-05T09:45:37.922Z,99.90
2018-09-05T09:48:07.349Z,99.90
2018-09-05T09:50:35.485Z,99.90
2018-09-05T09:53:03.921Z,99.90
2018-09-05T09:55:32.053Z,99.90
2018-09-05T09:58:01.029Z,99.90
2018-09-05T10:00:34.981Z,99.90
2018-09-05T10:03:08.551Z,99.90
2018-09-05T10:05:42.166Z,99.90
2018-09-05T10:08:15.434Z,99.90
2018-09-05T10:10:50.306Z,99.90
2018-09-05T10:13:25.345Z,99.90
2018-09-05T10:15:59.103Z,99.90
2018-09-05T10:18:29.454Z,99.90
2018-09-05T10:20:59.294Z,99.90
2018-09-05T10:23:27.381Z,99.90
2018-09-05T10:25:56.755Z,99.90
2018-09-05T10:28:25.896Z,99.90
2018-09-05T10:30:53.969Z,99.90
2018-09-05T10:33:22.597Z,99.90
2018-09-05T10:35:51.276Z,99.90
2018-09-05T10:38:19.562Z,99.90
2018-09-05T10:40:48.201Z,99.90
2018-09-05T10:43:17.385Z,99.90
2018-09-05T10:45:46.359Z,99.90
2018-09-05T10:48:14.927Z,99.90
2018-09-05T10:50:43.948Z,99.90
2018-09-05T10:53:12.117Z,99.90
2018-09-05T10:55:40.517Z,99.90
2018-09-05T10:58:09.422Z,99.90
2018-09-05T11:00:37.439Z,99.90
2018-09-05T11:06:05.073Z,99.90
2018-09-05T11:08:34.038Z,99.90
2018-09-05T11:11:02.185Z,99.90
2018-09-05T11:13:31.282Z,99.90
2018-09-05T11:15:59.953Z,99.90
2018-09-05T11:18:29.289Z,99.90
2018-09-05T11:20:57.938Z,99.90
2018-09-05T11:23:26.150Z,99.90
2018-09-05T11:25:55.049Z,99.90
2018-09-05T11:28:23.229Z,99.90
2018-09-05T11:30:51.376Z,99.90
2018-09-05T11:33:19.955Z,99.90
2018-09-05T11:35:48.177Z,99.90
2018-09-05T11:38:17.150Z,99.90
2018-09-05T11:40:45.581Z,99.90
2018-09-05T11:43:14.525Z,99.90
2018-09-05T11:45:43.084Z,99.90
2018-09-05T11:48:11.293Z,98.40
2018-09-05T11:50:40.027Z,98.20
2018-09-05T11:53:08.118Z,95.80
2018-09-05T11:55:36.565Z,96.90
2018-09-05T11:58:05.070Z,97.10
2018-09-05T12:00:33.252Z,96.50
2018-09-05T12:03:01.905Z,95.90
2018-09-05T12:05:30.193Z,98.10
2018-09-05T12:07:59.038Z,98.00
2018-09-05T12:10:27.806Z,98.90
2018-09-05T12:12:57.100Z,98.70
2018-09-05T12:15:25.917Z,96.70
2018-09-05T12:17:54.397Z,95.80
2018-09-05T12:20:23.777Z,97.20
2018-09-05T12:22:53.149Z,99.90
2018-09-05T12:25:21.876Z,99.90
2018-09-05T12:27:50.057Z,98.70
2018-09-05T12:30:18.735Z,98.80
2018-09-05T12:32:47.197Z,98.40
2018-09-05T12:35:15.409Z,98.20
2018-09-05T12:37:44.235Z,99.90
2018-09-05T12:40:13.618Z,99.40
2018-09-05T12:42:41.854Z,96.80
2018-09-05T12:45:10.342Z,97.20
2018-09-05T12:47:38.417Z,97.60
2018-09-05T12:50:07.009Z,97.90
2018-09-05T12:52:35.785Z,98.80
2018-09-05T12:55:04.082Z,99.90
2018-09-05T12:57:32.286Z,99.70
2018-09-05T13:00:00.570Z,99.90
2018-09-05T13:02:30.218Z,99.60
2018-09-05T13:06:01.936Z,99.90
2018-09-05T13:08:30.997Z,99.90
2018-09-05T13:10:59.306Z,99.90
2018-09-05T13:13:27.415Z,99.90
2018-09-05T13:15:55.925Z,99.90
2018-09-05T13:18:24.139Z,99.90
2018-09-05T13:20:53.907Z,99.90
2018-09-05T13:23:22.097Z,99.90
2018-09-05T13:25:50.454Z,99.90
2018-09-05T13:28:19.132Z,99.90
2018-09-05T13:30:47.689Z,98.90
2018-09-05T13:33:16.342Z,98.30
2018-09-05T13:35:44.473Z,98.00
2018-09-05T13:38:13.625Z,97.70
2018-09-05T13:40:43.018Z,97.80
2018-09-05T13:43:11.188Z,98.10
2018-09-05T13:45:39.319Z,98.20
2018-09-05T13:48:07.546Z,98.00
2018-09-05T13:50:36.450Z,98.10
2018-09-05T13:53:04.605Z,96.30
2018-09-05T13:55:32.694Z,95.90
2018-09-05T13:58:00.941Z,95.90
2018-09-05T14:00:29.850Z,96.20
2018-09-05T14:02:58.169Z,97.80
2018-09-05T14:05:27.461Z,96.80
2018-09-05T14:07:56.106Z,96.80
2018-09-05T14:10:25.573Z,96.50
2018-09-05T14:12:54.114Z,96.70
2018-09-05T14:15:22.896Z,97.30
2018-09-05T14:17:51.763Z,97.70
2018-09-05T14:20:20.401Z,97.60
2018-09-05T14:22:50.900Z,97.70
2018-09-05T14:25:19.057Z,95.20
2018-09-05T14:27:49.285Z,96.10
2018-09-05T14:30:17.786Z,95.10
2018-09-05T14:32:45.935Z,95.00
2018-09-05T14:35:14.159Z,96.90
2018-09-05T14:37:42.262Z,97.20
2018-09-05T14:40:10.508Z,97.00
2018-09-05T14:42:39.774Z,96.90
2018-09-05T14:45:07.953Z,96.20
2018-09-05T14:47:36.127Z,96.90
2018-09-05T14:50:04.601Z,96.50
2018-09-05T14:52:32.758Z,96.80
2018-09-05T14:55:01.442Z,96.60
2018-09-05T14:57:29.906Z,96.50
2018-09-05T14:59:57.982Z,97.40
2018-09-05T15:02:26.195Z,98.10
2018-09-05T15:04:55.501Z,98.40
2018-09-05T15:07:24.025Z,98.30
2018-09-05T15:09:53.942Z,97.20
2018-09-05T15:12:22.969Z,97.50
2018-09-05T15:14:51.247Z,96.40
2018-09-05T15:17:19.445Z,96.50
2018-09-05T15:19:48.538Z,96.40
2018-09-05T15:22:16.597Z,97.10
2018-09-05T15:24:44.849Z,96.80
2018-09-05T15:27:13.068Z,96.80
2018-09-05T15:29:42.802Z,97.40
2018-09-05T15:32:10.956Z,96.40
2018-09-05T15:34:39.656Z,97.20
2018-09-05T15:37:08.298Z,97.10
2018-09-05T15:39:36.372Z,96.60
2018-09-05T15:42:04.985Z,96.30
2018-09-05T15:44:33.144Z,96.40
2018-09-05T15:47:01.641Z,96.90
2018-09-05T15:49:30.539Z,96.50
2018-09-05T15:51:59.326Z,97.20
2018-09-05T15:54:27.530Z,97.60
2018-09-05T15:56:55.769Z,97.50
2018-09-05T15:59:24.330Z,98.30
2018-09-05T16:01:53.757Z,99.90
2018-09-05T16:04:22.081Z,99.90
2018-09-05T16:06:50.642Z,99.90
2018-09-05T16:09:18.719Z,99.90
2018-09-05T16:11:48.321Z,99.90
2018-09-05T16:14:16.517Z,99.90
2018-09-05T16:16:44.728Z,99.90
2018-09-05T16:19:13.702Z,99.90
2018-09-05T16:22:46.162Z,99.90
2018-09-05T16:25:15.301Z,99.90
2018-09-05T16:27:43.706Z,99.90
2018-09-05T16:30:13.269Z,99.90
2018-09-05T16:32:42.307Z,99.90
2018-09-05T16:35:10.377Z,99.90
2018-09-05T16:37:38.687Z,99.90
2018-09-05T16:40:06.825Z,99.90
2018-09-05T16:42:34.994Z,99.90
2018-09-05T16:45:03.671Z,99.90
2018-09-05T16:47:32.048Z,99.90
2018-09-05T16:50:00.652Z,99.90
2018-09-05T16:52:30.382Z,99.90
2018-09-05T16:54:59.154Z,99.90
2018-09-05T16:57:28.145Z,99.90
2018-09-05T16:59:56.661Z,99.90
2018-09-05T17:02:25.791Z,99.90
2018-09-05T17:04:55.110Z,99.90
2018-09-05T17:07:23.314Z,99.90
2018-09-05T17:09:51.800Z,99.90
2018-09-05T17:12:21.258Z,99.90
2018-09-05T17:14:49.550Z,99.90
2018-09-05T17:17:18.044Z,99.90
2018-09-05T17:19:47.297Z,99.90
2018-09-05T17:22:16.397Z,99.90
2018-09-05T17:24:44.607Z,99.90
2018-09-05T17:27:14.061Z,99.90
2018-09-05T17:29:42.184Z,99.90
2018-09-05T17:32:10.645Z,99.90
2018-09-05T17:34:38.881Z,99.90
2018-09-05T17:37:07.257Z,99.90
2018-09-05T17:39:35.466Z,99.90
2018-09-05T17:42:03.555Z,99.90
2018-09-05T17:44:31.751Z,99.90
2018-09-05T17:46:59.921Z,99.90
2018-09-05T17:49:28.491Z,99.90
2018-09-05T17:51:56.562Z,99.90
2018-09-05T17:54:24.785Z,99.90
2018-09-05T17:56:52.933Z,99.90
2018-09-05T17:59:21.282Z,99.90
2018-09-05T18:01:49.521Z,99.90
2018-09-05T18:04:18.077Z,99.90
2018-09-05T18:06:46.218Z,99.90
2018-09-05T18:09:14.461Z,99.90
2018-09-05T18:11:42.566Z,99.90
2018-09-05T18:14:11.292Z,99.90
2018-09-05T18:16:39.357Z,99.90
2018-09-05T18:19:08.062Z,99.90
2018-09-05T18:21:36.781Z,99.90
2018-09-05T18:24:04.883Z,99.90
2018-09-05T18:26:33.122Z,99.90
2018-09-05T18:29:01.784Z,99.90
2018-09-05T18:31:30.466Z,99.90
2018-09-05T18:33:58.834Z,99.90
2018-09-05T18:36:27.925Z,99.90
2018-09-05T18:38:56.829Z,99.90
2018-09-05T18:41:25.287Z,99.90
2018-09-05T18:43:53.497Z,99.90
2018-09-05T18:46:21.929Z,99.90
2018-09-05T18:48:51.021Z,99.90
2018-09-05T18:51:20.138Z,99.90
2018-09-05T18:53:49.030Z,99.90
2018-09-05T18:56:17.413Z,99.90
2018-09-05T18:58:47.175Z,99.90
2018-09-05T19:01:15.222Z,99.90
2018-09-05T19:03:44.830Z,99.90
2018-09-05T19:06:13.358Z,99.90
2018-09-05T19:08:42.412Z,99.90
2018-09-05T19:11:10.541Z,99.90
2018-09-05T19:13:39.246Z,99.90
2018-09-05T19:16:08.371Z,99.90
2018-09-05T19:18:38.271Z,99.90
2018-09-05T19:21:06.961Z,99.90
2018-09-05T19:23:36.141Z,99.90
2018-09-05T19:26:04.385Z,99.90
2018-09-05T19:28:33.035Z,99.90
2018-09-05T19:31:01.819Z,99.90
2018-09-05T19:33:31.645Z,99.90
2018-09-05T19:36:00.315Z,99.90
2018-09-05T19:38:28.498Z,99.90
2018-09-05T19:40:56.910Z,99.90
2018-09-05T19:43:25.230Z,99.90
2018-09-05T19:45:53.425Z,99.90
2018-09-05T19:48:22.205Z,99.90
2018-09-05T19:50:50.281Z,99.90
2018-09-05T19:53:19.173Z,99.90
2018-09-05T19:55:47.946Z,99.90
2018-09-05T19:58:16.723Z,99.90
2018-09-05T20:00:45.134Z,99.90
2018-09-05T20:03:13.286Z,99.90
2018-09-05T20:05:42.917Z,99.90
2018-09-05T20:08:11.786Z,99.90
2018-09-05T20:10:40.302Z,99.90
2018-09-05T20:13:08.674Z,99.90
2018-09-05T20:15:37.745Z,99.90
2018-09-05T20:18:06.414Z,99.90
2018-09-05T20:20:35.364Z,99.90
2018-09-05T20:23:03.482Z,99.90
2018-09-05T20:25:32.294Z,99.90
2018-09-05T20:28:00.357Z,99.90
2018-09-05T20:30:30.297Z,99.90
2018-09-05T20:32:59.476Z,99.90
2018-09-05T20:35:27.677Z,99.90
2018-09-05T20:37:56.370Z,99.90
2018-09-05T20:40:24.493Z,99.90
2018-09-05T20:42:52.785Z,99.90
2018-09-05T20:45:21.249Z,99.90
2018-09-05T20:47:49.715Z,99.90
2018-09-05T20:50:18.694Z,99.90
2018-09-05T20:52:47.326Z,99.90
2018-09-05T20:55:15.845Z,99.90
2018-09-05T20:57:43.981Z,99.90
2018-09-05T21:00:12.745Z,99.90
2018-09-05T21:02:40.854Z,99.90
2018-09-05T21:05:09.066Z,99.90
2018-09-05T21:07:37.181Z,99.90
2018-09-05T21:10:06.141Z,99.90
2018-09-05T21:12:34.313Z,99.90
2018-09-05T21:15:02.698Z,99.90
2018-09-05T21:17:31.653Z,99.90
2018-09-05T21:20:00.625Z,99.90
2018-09-05T21:22:29.245Z,99.90
2018-09-05T21:24:57.995Z,99.90
2018-09-05T21:27:26.188Z,99.90
2018-09-05T21:29:54.313Z,99.90
2018-09-05T21:32:22.834Z,99.90
2018-09-05T21:34:51.027Z,99.90
2018-09-05T21:37:19.697Z,99.90
2018-09-05T21:39:47.929Z,99.90
2018-09-05T21:42:16.257Z,99.90
2018-09-05T21:44:45.758Z,99.90
2018-09-05T21:47:14.137Z,99.90
2018-09-05T21:49:42.905Z,99.90
2018-09-05T21:52:11.621Z,99.90
2018-09-05T21:54:40.654Z,99.90
2018-09-05T21:57:09.629Z,99.90
2018-09-05T21:59:38.813Z,99.90
2018-09-05T22:02:07.510Z,99.90
2018-09-05T22:04:36.854Z,99.90
2018-09-05T22:07:05.966Z,99.90
2018-09-05T22:09:35.003Z,99.90
2018-09-05T22:12:03.981Z,99.90
2018-09-05T22:14:32.963Z,99.90
2018-09-05T22:17:02.066Z,99.90
2018-09-05T22:19:30.981Z,99.90
2018-09-05T22:21:59.398Z,99.90
2018-09-05T22:24:27.556Z,99.90
2018-09-05T22:26:56.211Z,99.90
2018-09-05T22:29:24.831Z,99.90
2018-09-05T22:31:53.985Z,99.90
2018-09-05T22:34:23.817Z,99.90
2018-09-05T22:36:51.910Z,99.90
2018-09-05T22:39:20.855Z,99.90
2018-09-05T22:41:49.890Z,99.90
2018-09-05T22:44:29.538Z,99.90
2018-09-05T22:47:09.379Z,99.90
2018-09-05T22:49:55.203Z,99.90
2018-09-05T22:54:44.207Z,99.90
2018-09-05T22:59:29.440Z,99.90
2018-09-05T23:04:17.103Z,99.90
2018-09-05T23:06:57.819Z,99.90
2018-09-05T23:09:37.991Z,99.90
2018-09-05T23:12:19.167Z,99.90
2018-09-05T23:17:11.319Z,99.90
2018-09-05T23:20:48.811Z,99.90
2018-09-05T23:23:28.470Z,99.90
2018-09-05T23:25:56.613Z,99.90
2018-09-05T23:28:25.275Z,99.90
2018-09-05T23:30:53.826Z,99.90
2018-09-05T23:33:22.507Z,99.90
2018-09-05T23:35:50.863Z,99.90
2018-09-05T23:39:48.807Z,99.90
2018-09-05T23:42:17.319Z,99.90
2018-09-05T23:44:46.970Z,99.90
2018-09-05T23:47:15.682Z,99.90
2018-09-05T23:49:44.462Z,99.90
2018-09-05T23:52:13.538Z,99.90
2018-09-05T23:54:42.759Z,99.90
2018-09-05T23:57:14.004Z,99.90
2018-09-05T23:59:42.750Z,99.90
